Terminal Aerodrome Forecast
Issued by NWS Cleveland, OH

Home | Current Version | Previous Version | Graphics & Text | Print | Product List | Glossary On
Versions: 1 2 3 4 5 6 7 8 9 10 11 12 13 14 15
000
FTUS41 KCLE 170538
TAFCAK
TAF
KCAK 170538Z 1706/1806 VRB03KT P6SM FEW080
     FM170700 00000KT 3SM BR SKC
     FM170900 00000KT 1 1/2SM BR SCT005
      TEMPO 1709/1712 1/2SM FG BKN004
     FM171400 VRB04KT P6SM SCT040=

USA.gov is the U.S. government's official web portal to all federal, state and local government web resources and services.